MNZ weather

Hamilton Municipal Airport
Hamilton, Texas, United States

Public forecast

Using degrees Fahrenheit for public forecast. Weather courtesy of forecast.io.

METAR (pilot weather report)

Report is more than 6 hours old.

Retrieved 2019/09/10 15:50 UTC (7 days ago):

KMNZ 101550Z AUTO 17014G20KT 10SM CLR 30/20 A3013 RMK AO2 T02970197

TAF (pilot weather forecast)

Closest forecast is Robert Gray Army Air Field Airport, 39.5 nm (73.2 km) SSE. Retrieved 2019/09/17 16:15 UTC (3 hours ago):

TAF KGRK 171600Z 1716/1822 02010KT 9999 SCT020 QNH2992INS BECMG 1717/1718 08010KT 9999 BKN035 QNH2991INS BECMG 1719/1720 07010G15KT 9999 -SHRA VCTS BKN035CB QNH2984INS BECMG 1801/1802 08009KT 9999 NSW SCT025 BKN040 QNH2989INS TEMPO 1808/1813 VRB06KT 9999 OVC007 BECMG 1818/1819 03010G15KT 9000 -TSRA BKN025CB OVC040 QNH2986INS TX33/1721Z TN22/1812Z